createdAt,value
2023-02-13T00:01:12.974Z,100.00
2023-02-13T00:06:18.424Z,100.00
2023-02-13T00:11:22.939Z,100.00
2023-02-13T00:16:31.004Z,100.00
2023-02-13T00:21:35.090Z,100.00
2023-02-13T00:26:40.631Z,100.00
2023-02-13T00:31:47.434Z,100.00
2023-02-13T00:36:55.516Z,100.00
2023-02-13T00:42:00.329Z,100.00
2023-02-13T00:47:12.270Z,100.00
2023-02-13T00:52:17.450Z,100.00
2023-02-13T00:57:24.717Z,100.00
2023-02-13T01:02:30.801Z,100.00
2023-02-13T01:07:34.847Z,100.00
2023-02-13T01:12:43.035Z,100.00
2023-02-13T01:17:55.007Z,100.00
2023-02-13T01:23:02.185Z,100.00
2023-02-13T01:28:08.480Z,100.00
2023-02-13T01:33:17.405Z,100.00
2023-02-13T01:38:23.209Z,100.00
2023-02-13T01:43:45.652Z,100.00
2023-02-13T01:48:56.508Z,100.00
2023-02-13T01:54:05.552Z,100.00
2023-02-13T01:59:19.629Z,100.00
2023-02-13T02:04:29.385Z,100.00
2023-02-13T02:09:39.649Z,100.00
2023-02-13T02:14:45.637Z,100.00
2023-02-13T02:20:03.630Z,100.00
2023-02-13T02:25:42.347Z,100.00
2023-02-13T02:31:25.706Z,100.00
2023-02-13T02:36:46.196Z,100.00
2023-02-13T02:42:00.378Z,100.00
2023-02-13T02:47:28.919Z,100.00
2023-02-13T02:52:45.975Z,100.00
2023-02-13T02:58:15.643Z,100.00
2023-02-13T03:03:40.768Z,100.00
2023-02-13T03:09:11.892Z,100.00
2023-02-13T03:14:21.694Z,100.00
2023-02-13T03:20:05.089Z,100.00
2023-02-13T03:25:34.744Z,100.00
2023-02-13T03:30:58.823Z,100.00
2023-02-13T03:36:29.177Z,100.00
2023-02-13T03:41:42.854Z,100.00
2023-02-13T03:46:50.858Z,100.00
2023-02-13T03:52:02.576Z,100.00
2023-02-13T03:57:26.444Z,100.00
2023-02-13T04:02:35.334Z,100.00
2023-02-13T04:07:41.153Z,100.00
2023-02-13T04:12:56.216Z,100.00
2023-02-13T04:18:10.611Z,100.00
2023-02-13T04:23:17.416Z,100.00
2023-02-13T04:28:28.493Z,100.00
2023-02-13T04:33:32.038Z,100.00
2023-02-13T04:38:37.026Z,100.00
2023-02-13T04:43:46.262Z,100.00
2023-02-13T04:48:56.720Z,100.00
2023-02-13T04:54:04.594Z,100.00
2023-02-13T04:59:13.685Z,100.00
2023-02-13T05:04:34.370Z,100.00
2023-02-13T05:09:43.709Z,100.00
2023-02-13T05:14:51.822Z,100.00
2023-02-13T05:19:56.465Z,100.00
2023-02-13T05:25:01.609Z,100.00
2023-02-13T05:30:32.341Z,100.00
2023-02-13T05:35:40.352Z,100.00
2023-02-13T05:40:46.641Z,100.00
2023-02-13T05:46:03.774Z,100.00
2023-02-13T05:51:09.386Z,100.00
2023-02-13T05:56:22.318Z,100.00
2023-02-13T06:01:27.933Z,100.00
2023-02-13T06:06:33.049Z,100.00
2023-02-13T06:11:37.624Z,100.00
2023-02-13T06:16:46.981Z,100.00
2023-02-13T06:21:59.806Z,100.00
2023-02-13T06:27:07.899Z,100.00
2023-02-13T06:32:20.715Z,100.00
2023-02-13T06:37:32.843Z,100.00
2023-02-13T06:42:37.180Z,100.00
2023-02-13T06:47:53.617Z,100.00
2023-02-13T06:53:00.911Z,100.00
2023-02-13T06:58:11.233Z,100.00
2023-02-13T07:03:19.849Z,100.00
2023-02-13T07:08:25.404Z,100.00
2023-02-13T07:13:33.091Z,100.00
2023-02-13T07:18:44.778Z,100.00
2023-02-13T07:23:51.099Z,100.00
2023-02-13T07:29:11.195Z,100.00
2023-02-13T07:34:21.712Z,100.00
2023-02-13T07:39:27.424Z,100.00
2023-02-13T07:44:35.520Z,100.00
2023-02-13T07:49:47.365Z,100.00
2023-02-13T07:54:55.078Z,100.00
2023-02-13T08:00:00.590Z,100.00
2023-02-13T08:05:08.999Z,100.00
2023-02-13T08:10:46.093Z,100.00
2023-02-13T08:15:51.424Z,100.00
2023-02-13T08:20:59.027Z,100.00
2023-02-13T08:26:10.442Z,100.00
2023-02-13T08:31:22.311Z,100.00
2023-02-13T08:36:28.251Z,100.00
2023-02-13T08:41:37.167Z,100.00
2023-02-13T08:46:42.197Z,100.00
2023-02-13T08:52:02.222Z,100.00
2023-02-13T08:57:07.621Z,100.00
2023-02-13T09:02:16.275Z,100.00
2023-02-13T09:07:25.480Z,100.00
2023-02-13T09:12:29.595Z,100.00
2023-02-13T09:17:37.118Z,100.00
2023-02-13T09:22:43.609Z,100.00
2023-02-13T09:27:53.791Z,100.00
2023-02-13T09:33:04.241Z,100.00
2023-02-13T09:38:18.153Z,100.00
2023-02-13T09:43:36.893Z,100.00
2023-02-13T09:48:45.733Z,100.00
2023-02-13T09:53:58.442Z,100.00
2023-02-13T09:59:09.696Z,100.00
2023-02-13T10:04:32.610Z,100.00
2023-02-13T10:09:43.902Z,100.00
2023-02-13T10:15:04.587Z,100.00
2023-02-13T10:20:23.903Z,100.00
2023-02-13T10:25:34.599Z,100.00
2023-02-13T10:30:58.910Z,100.00
2023-02-13T10:36:10.567Z,100.00
2023-02-13T10:41:30.321Z,100.00
2023-02-13T10:46:45.321Z,100.00
2023-02-13T10:51:59.916Z,100.00
2023-02-13T10:57:21.259Z,100.00
2023-02-13T11:02:30.690Z,100.00
2023-02-13T11:07:39.498Z,100.00
2023-02-13T11:12:53.557Z,100.00
2023-02-13T11:18:18.544Z,99.75
2023-02-13T11:23:38.268Z,98.78
2023-02-13T11:28:52.743Z,98.09
2023-02-13T11:33:59.849Z,96.84
2023-02-13T11:39:13.253Z,97.19
2023-02-13T11:44:28.537Z,95.43
2023-02-13T11:49:36.327Z,95.79
2023-02-13T11:54:45.020Z,94.65
2023-02-13T11:59:59.143Z,94.67
2023-02-13T12:05:24.961Z,94.42
2023-02-13T12:10:37.621Z,94.36
2023-02-13T12:15:53.272Z,94.94
2023-02-13T12:21:12.045Z,92.88
2023-02-13T12:26:37.250Z,94.01
2023-02-13T12:37:45.592Z,92.84
2023-02-13T12:43:02.711Z,94.08
2023-02-13T12:48:17.057Z,92.39
2023-02-13T12:53:37.545Z,93.95
2023-02-13T12:59:00.805Z,92.64
2023-02-13T13:04:17.300Z,92.39
2023-02-13T13:09:42.384Z,92.08
2023-02-13T13:14:54.951Z,93.35
2023-02-13T13:20:07.421Z,92.63
2023-02-13T13:25:22.275Z,92.33
2023-02-13T13:30:29.650Z,92.37
2023-02-13T13:35:36.470Z,92.38
2023-02-13T13:46:16.652Z,92.24
2023-02-13T13:51:21.534Z,92.97
2023-02-13T13:56:24.776Z,92.33
2023-02-13T14:01:31.667Z,93.16
2023-02-13T14:07:07.341Z,92.10
2023-02-13T14:12:39.736Z,92.14
2023-02-13T14:17:54.805Z,92.30
2023-02-13T14:23:07.345Z,93.60
2023-02-13T14:28:22.498Z,93.08
2023-02-13T14:33:32.571Z,93.63
2023-02-13T14:38:37.649Z,93.33
2023-02-13T14:43:54.849Z,93.43
2023-02-13T14:49:03.621Z,93.53
2023-02-13T14:54:17.036Z,93.30
2023-02-13T14:59:24.513Z,94.58
2023-02-13T15:04:32.536Z,93.77
2023-02-13T15:09:40.098Z,94.94
2023-02-13T15:14:43.173Z,95.21
2023-02-13T15:19:51.401Z,94.00
2023-02-13T15:24:54.710Z,94.41
2023-02-13T15:30:00.811Z,95.51
2023-02-13T15:35:22.794Z,95.33
2023-02-13T15:40:28.255Z,94.86
2023-02-13T15:45:32.255Z,95.24
2023-02-13T15:50:37.368Z,95.21
2023-02-13T15:55:40.504Z,95.90
2023-02-13T16:00:44.879Z,96.62
2023-02-13T16:05:51.040Z,95.81
2023-02-13T16:11:19.089Z,96.17
2023-02-13T16:16:24.090Z,97.32
2023-02-13T16:21:31.588Z,97.53
2023-02-13T16:26:39.322Z,97.89
2023-02-13T16:31:42.659Z,97.97
2023-02-13T16:36:47.307Z,97.52
2023-02-13T16:41:50.936Z,98.66
2023-02-13T16:46:57.728Z,98.76
2023-02-13T16:52:12.997Z,98.52
2023-02-13T16:57:23.622Z,99.60
2023-02-13T17:02:28.260Z,99.19
2023-02-13T17:07:37.350Z,98.91
2023-02-13T17:12:40.875Z,99.31
2023-02-13T17:17:45.143Z,99.73
2023-02-13T17:22:52.250Z,99.94
2023-02-13T17:27:57.265Z,100.00
2023-02-13T17:33:05.859Z,100.00
2023-02-13T17:38:12.234Z,100.00
2023-02-13T17:43:17.062Z,100.00
2023-02-13T17:48:25.992Z,100.00
2023-02-13T17:53:31.805Z,100.00
2023-02-13T17:58:36.436Z,100.00
2023-02-13T18:03:40.526Z,100.00
2023-02-13T18:08:45.196Z,100.00
2023-02-13T18:13:49.006Z,100.00
2023-02-13T18:19:00.509Z,100.00
2023-02-13T18:24:06.191Z,100.00
2023-02-13T18:29:09.291Z,100.00
2023-02-13T18:34:12.778Z,100.00
2023-02-13T18:39:18.053Z,100.00
2023-02-13T18:44:39.618Z,100.00
2023-02-13T18:49:45.620Z,100.00
2023-02-13T18:54:51.628Z,100.00
2023-02-13T18:59:55.142Z,100.00
2023-02-13T19:05:07.601Z,100.00
2023-02-13T19:10:12.926Z,100.00
2023-02-13T19:15:16.638Z,100.00
2023-02-13T19:20:32.590Z,100.00
2023-02-13T19:25:40.302Z,100.00
2023-02-13T19:30:47.831Z,100.00
2023-02-13T19:35:58.802Z,100.00
2023-02-13T19:41:05.946Z,100.00
2023-02-13T19:46:22.059Z,100.00
2023-02-13T19:51:55.097Z,100.00
2023-02-13T19:57:01.609Z,100.00
2023-02-13T20:02:21.604Z,100.00
2023-02-13T20:07:28.837Z,100.00
2023-02-13T20:12:37.142Z,100.00
2023-02-13T20:17:49.356Z,100.00
2023-02-13T20:22:55.199Z,100.00
2023-02-13T20:28:12.986Z,100.00
2023-02-13T20:33:26.911Z,100.00
2023-02-13T20:38:30.581Z,100.00
2023-02-13T20:43:35.159Z,100.00
2023-02-13T20:48:38.386Z,100.00
2023-02-13T20:53:42.973Z,100.00
2023-02-13T20:58:49.209Z,100.00
2023-02-13T21:03:54.963Z,100.00
2023-02-13T21:08:58.260Z,100.00
2023-02-13T21:14:03.669Z,100.00
2023-02-13T21:19:08.686Z,100.00
2023-02-13T21:24:14.862Z,100.00
2023-02-13T21:29:19.707Z,100.00
2023-02-13T21:34:22.833Z,100.00
2023-02-13T21:39:26.019Z,100.00
2023-02-13T21:44:30.568Z,100.00
2023-02-13T21:49:33.724Z,100.00
2023-02-13T21:54:36.795Z,100.00
2023-02-13T21:59:41.493Z,100.00
2023-02-13T22:04:44.858Z,100.00
2023-02-13T22:09:48.080Z,100.00
2023-02-13T22:14:52.643Z,100.00
2023-02-13T22:19:55.905Z,100.00
2023-02-13T22:24:59.096Z,100.00
2023-02-13T22:30:03.837Z,100.00
2023-02-13T22:35:09.589Z,100.00
2023-02-13T22:40:13.378Z,100.00
2023-02-13T22:45:18.256Z,100.00
2023-02-13T22:50:21.634Z,100.00
2023-02-13T22:55:24.794Z,100.00
2023-02-13T23:00:30.030Z,100.00
2023-02-13T23:05:33.139Z,100.00
2023-02-13T23:10:36.419Z,100.00
2023-02-13T23:15:47.229Z,100.00
2023-02-13T23:20:50.525Z,100.00
2023-02-13T23:25:53.651Z,100.00
2023-02-13T23:30:59.052Z,100.00
2023-02-13T23:36:02.460Z,100.00
2023-02-13T23:41:09.121Z,100.00
2023-02-13T23:46:13.791Z,100.00
2023-02-13T23:51:18.533Z,100.00
2023-02-13T23:56:21.798Z,100.00
